Time;durP1;ratioP1;P1;durP2;ratioP2;P2;SDS_P1;SDS_P2;PMS_P1;PMS_P2;Temp;Humidity;BMP_temperature;BMP_pressure;BME280_temperature;BME280_humidity;BME280_pressure;Samples;Min_cycle;Max_cycle;Signal;HPM_P1;HPM_P2
2022/10/29 00:00:55;;;;;;;4.97;2.47;;;14.40;99.90;;;;;;4992284;28;20485;-80
2022/10/29 00:03:21;;;;;;;8.13;3.38;;;14.40;99.90;;;;;;4991627;28;20486;-80
2022/10/29 00:06:06;;;;;;;6.47;2.58;;;14.40;99.90;;;;;;4992261;28;20054;-80
2022/10/29 00:08:34;;;;;;;8.27;3.22;;;14.30;99.90;;;;;;4990133;28;20478;-80
2022/10/29 00:11:13;;;;;;;7.18;2.72;;;14.20;99.90;;;;;;4983639;28;20030;-80
2022/10/29 00:13:41;;;;;;;6.13;2.42;;;14.20;99.90;;;;;;4996211;28;20026;-80
2022/10/29 00:16:09;;;;;;;7.10;2.70;;;14.20;99.90;;;;;;4961412;28;20095;-79
2022/10/29 00:18:36;;;;;;;8.55;2.70;;;14.20;99.90;;;;;;4995107;28;20015;-80
2022/10/29 00:21:07;;;;;;;6.80;2.60;;;14.10;99.90;;;;;;4997281;28;20336;-80
2022/10/29 00:23:33;;;;;;;5.90;2.70;;;14.10;99.90;;;;;;4993518;28;20041;-81
2022/10/29 00:26:01;;;;;;;7.70;3.15;;;14.10;99.90;;;;;;5005816;28;20018;-79
2022/10/29 00:28:27;;;;;;;9.65;2.92;;;14.10;99.90;;;;;;4967469;28;20035;-80
2022/10/29 00:30:53;;;;;;;9.55;3.60;;;14.00;99.90;;;;;;4997902;28;20098;-80
2022/10/29 00:33:19;;;;;;;7.50;2.83;;;14.00;99.90;;;;;;4983098;28;20137;-80
2022/10/29 00:35:56;;;;;;;5.80;2.75;;;14.00;99.90;;;;;;4978419;28;20062;-80
2022/10/29 00:38:23;;;;;;;5.05;2.50;;;13.90;99.90;;;;;;4995705;28;20026;-79
2022/10/29 00:40:48;;;;;;;5.82;2.80;;;13.90;99.90;;;;;;4975499;28;20426;-80
2022/10/29 00:43:16;;;;;;;5.43;2.70;;;13.80;99.90;;;;;;4978865;28;20018;-80
2022/10/29 00:45:48;;;;;;;5.55;2.55;;;13.80;99.90;;;;;;4978910;28;20169;-80
2022/10/29 00:48:14;;;;;;;6.80;2.88;;;13.80;99.90;;;;;;4967175;28;20026;-80
2022/10/29 00:50:42;;;;;;;6.03;3.10;;;13.80;99.90;;;;;;4978541;28;20479;-80
2022/10/29 00:53:08;;;;;;;7.78;3.10;;;13.80;99.90;;;;;;4978777;28;20026;-80
2022/10/29 00:55:35;;;;;;;6.80;2.72;;;13.80;99.90;;;;;;4995939;28;20100;-80
2022/10/29 00:58:01;;;;;;;6.65;3.40;;;13.80;99.90;;;;;;4978578;28;20023;-80
2022/10/29 01:00:27;;;;;;;6.50;3.08;;;13.80;99.90;;;;;;4978745;28;20049;-80
2022/10/29 01:02:53;;;;;;;7.18;3.13;;;13.70;99.90;;;;;;4978581;28;20109;-80
2022/10/29 01:05:22;;;;;;;7.20;2.83;;;13.70;99.90;;;;;;4978555;28;20072;-80
2022/10/29 01:07:48;;;;;;;7.32;2.90;;;13.60;99.90;;;;;;4978321;28;20033;-80
2022/10/29 01:10:15;;;;;;;8.23;3.22;;;13.60;99.90;;;;;;4978217;28;20022;-80
2022/10/29 01:12:59;;;;;;;6.28;3.33;;;13.50;99.90;;;;;;4978415;28;20029;-79
2022/10/29 01:15:57;;;;;;;7.30;2.83;;;13.50;99.90;;;;;;4962729;28;20041;-80
2022/10/29 01:18:36;;;;;;;4.47;2.53;;;13.50;99.90;;;;;;4969040;28;20046;-80
2022/10/29 01:21:24;;;;;;;6.43;2.85;;;13.50;99.90;;;;;;4978323;28;20018;-80
2022/10/29 01:23:58;;;;;;;5.82;3.13;;;13.40;99.90;;;;;;4967558;28;20027;-80
2022/10/29 01:26:36;;;;;;;7.38;2.88;;;13.40;99.90;;;;;;4978068;28;20471;-79
2022/10/29 01:29:30;;;;;;;5.25;2.75;;;13.40;99.90;;;;;;4978402;28;20071;-80
2022/10/29 01:32:18;;;;;;;7.22;2.58;;;13.40;99.90;;;;;;4952667;28;20042;-80
2022/10/29 01:34:59;;;;;;;8.80;2.40;;;13.40;99.90;;;;;;4993316;28;20164;-79
2022/10/29 01:37:43;;;;;;;4.65;2.33;;;13.30;99.90;;;;;;4999416;28;20034;-80
2022/10/29 01:40:30;;;;;;;5.63;2.58;;;13.30;99.90;;;;;;4986469;28;20026;-80
2022/10/29 01:43:12;;;;;;;6.05;2.97;;;13.30;99.90;;;;;;4980164;28;20025;-80
2022/10/29 01:45:51;;;;;;;6.22;2.60;;;13.30;99.90;;;;;;4980015;28;20049;-80
2022/10/29 01:48:25;;;;;;;6.25;2.90;;;13.30;99.90;;;;;;4997658;28;20034;-80
2022/10/29 01:50:55;;;;;;;5.95;2.75;;;13.30;99.90;;;;;;4975095;28;20069;-80
2022/10/29 01:53:22;;;;;;;6.57;2.95;;;13.30;99.90;;;;;;4971242;28;20027;-80
2022/10/29 01:55:47;;;;;;;6.80;3.40;;;13.20;99.90;;;;;;4978358;28;20034;-80
2022/10/29 01:58:14;;;;;;;5.90;2.97;;;13.20;99.90;;;;;;4978014;28;20022;-80
2022/10/29 02:01:05;;;;;;;5.95;2.90;;;13.10;99.90;;;;;;4961998;28;20054;-80
2022/10/29 02:04:11;;;;;;;5.72;3.00;;;13.10;99.90;;;;;;4977839;28;20038;-80
2022/10/29 02:07:01;;;;;;;6.95;3.00;;;13.10;99.90;;;;;;4976390;28;20065;-80
2022/10/29 02:10:08;;;;;;;4.85;2.70;;;13.00;99.90;;;;;;4978305;28;20030;-80
2022/10/29 02:12:39;;;;;;;7.15;3.05;;;13.00;99.90;;;;;;4963086;28;20557;-80
2022/10/29 02:15:11;;;;;;;6.10;3.15;;;13.00;99.90;;;;;;4977419;28;20409;-80
2022/10/29 02:17:37;;;;;;;4.93;2.80;;;12.90;99.90;;;;;;4977566;28;20167;-80
2022/10/29 02:20:09;;;;;;;7.57;3.35;;;12.90;99.90;;;;;;4977535;28;20382;-80
2022/10/29 02:22:34;;;;;;;7.85;4.05;;;12.80;99.90;;;;;;4972875;28;20503;-79
2022/10/29 02:25:03;;;;;;;8.70;3.65;;;12.80;99.90;;;;;;4977359;28;20023;-80
2022/10/29 02:27:29;;;;;;;8.90;3.67;;;12.80;99.90;;;;;;4977236;28;20026;-80
2022/10/29 02:29:54;;;;;;;7.28;3.40;;;12.80;99.90;;;;;;4976995;28;20022;-80
2022/10/29 02:32:20;;;;;;;7.50;3.70;;;12.80;99.90;;;;;;4965463;28;20089;-80
2022/10/29 02:34:46;;;;;;;6.03;3.45;;;12.70;99.90;;;;;;4993111;28;20058;-79
2022/10/29 02:37:12;;;;;;;6.63;3.47;;;12.70;99.90;;;;;;4971798;28;20050;-80
2022/10/29 02:39:38;;;;;;;6.47;3.63;;;12.70;99.90;;;;;;4977450;28;20026;-79
2022/10/29 02:42:04;;;;;;;7.22;3.28;;;12.70;99.90;;;;;;4977381;28;20033;-80
2022/10/29 02:44:29;;;;;;;5.78;2.75;;;12.70;99.90;;;;;;4994516;28;20126;-80
2022/10/29 02:46:55;;;;;;;7.13;3.13;;;12.70;99.90;;;;;;4976980;28;20379;-79
2022/10/29 02:49:21;;;;;;;6.88;3.15;;;12.60;99.90;;;;;;4977092;28;20030;-79
2022/10/29 02:51:46;;;;;;;6.75;3.22;;;12.60;99.90;;;;;;4977100;28;20179;-79
2022/10/29 02:54:12;;;;;;;6.97;3.30;;;12.60;99.90;;;;;;4976618;28;20034;-80
2022/10/29 02:56:38;;;;;;;6.45;3.05;;;12.60;99.90;;;;;;4976376;28;20129;-78
2022/10/29 02:59:04;;;;;;;7.13;3.50;;;12.60;99.90;;;;;;4976407;28;20037;-80
2022/10/29 03:01:30;;;;;;;7.50;3.70;;;12.50;99.90;;;;;;4994350;28;20077;-80
2022/10/29 03:03:57;;;;;;;5.88;3.35;;;12.60;99.90;;;;;;4976830;28;20022;-79
2022/10/29 03:06:22;;;;;;;6.60;3.20;;;12.60;99.90;;;;;;4976375;28;20081;-79
2022/10/29 03:08:48;;;;;;;6.07;2.90;;;12.60;99.90;;;;;;4976460;28;20022;-79
2022/10/29 03:11:15;;;;;;;5.15;2.83;;;12.60;99.90;;;;;;4994121;28;20029;-79
2022/10/29 03:13:40;;;;;;;6.50;3.15;;;12.60;99.90;;;;;;4976598;28;20031;-79
2022/10/29 03:16:07;;;;;;;6.55;2.92;;;12.60;99.90;;;;;;4994038;28;20433;-80
2022/10/29 03:18:33;;;;;;;6.07;3.58;;;12.60;99.90;;;;;;4993812;28;20038;-79
2022/10/29 03:20:59;;;;;;;6.78;3.13;;;12.50;99.90;;;;;;4979548;28;20226;-78
2022/10/29 03:23:25;;;;;;;7.85;3.38;;;12.50;99.90;;;;;;5000999;28;20017;-78
2022/10/29 03:25:52;;;;;;;7.40;3.00;;;12.50;99.90;;;;;;5000073;28;20074;-80
2022/10/29 03:28:18;;;;;;;7.13;3.28;;;12.50;99.90;;;;;;5000207;28;20022;-79
2022/10/29 03:30:44;;;;;;;8.40;3.17;;;12.50;99.90;;;;;;4978007;28;20026;-80
2022/10/29 03:33:10;;;;;;;6.07;3.25;;;12.50;99.90;;;;;;4978678;28;20410;-79
2022/10/29 03:35:35;;;;;;;6.07;2.95;;;12.50;99.90;;;;;;4978236;28;20449;-80
2022/10/29 03:38:01;;;;;;;6.50;3.17;;;12.50;99.90;;;;;;4994866;28;20046;-78
2022/10/29 03:40:27;;;;;;;6.78;3.42;;;12.50;99.90;;;;;;4977779;28;20026;-79
2022/10/29 03:42:53;;;;;;;8.23;3.35;;;12.50;99.90;;;;;;4977621;28;20026;-79
2022/10/29 03:45:19;;;;;;;6.82;3.40;;;12.50;99.90;;;;;;4978053;28;20041;-79
2022/10/29 03:47:44;;;;;;;4.90;3.08;;;12.50;99.90;;;;;;4980941;28;20113;-79
2022/10/29 03:50:10;;;;;;;6.20;3.45;;;12.50;99.90;;;;;;4980286;28;20033;-79
2022/10/29 03:52:36;;;;;;;8.68;3.20;;;12.40;99.90;;;;;;4980040;28;20031;-79
2022/10/29 03:55:03;;;;;;;5.95;3.13;;;12.40;99.90;;;;;;4979634;28;20054;-79
2022/10/29 03:57:29;;;;;;;6.32;3.50;;;12.40;99.90;;;;;;4979669;28;20034;-79
2022/10/29 03:59:55;;;;;;;7.63;3.60;;;12.40;99.90;;;;;;4979876;28;20497;-79
2022/10/29 04:02:21;;;;;;;7.90;3.38;;;12.40;99.90;;;;;;4979525;28;20069;-79
2022/10/29 04:04:47;;;;;;;7.97;3.83;;;12.50;99.90;;;;;;4979476;28;20034;-79
2022/10/29 04:07:12;;;;;;;7.60;3.78;;;12.50;99.90;;;;;;4979537;28;20061;-79
2022/10/29 04:09:38;;;;;;;7.65;3.40;;;12.50;99.90;;;;;;4979499;28;20051;-79
2022/10/29 04:12:05;;;;;;;7.13;3.45;;;12.40;99.90;;;;;;4996974;28;20050;-80
2022/10/29 04:14:30;;;;;;;6.28;3.30;;;12.50;99.90;;;;;;4959645;28;20069;-79
2022/10/29 04:16:57;;;;;;;5.40;2.95;;;12.50;99.90;;;;;;4995872;28;20027;-79
2022/10/29 04:19:23;;;;;;;6.03;3.30;;;12.50;99.90;;;;;;4979386;28;20057;-79
2022/10/29 04:21:49;;;;;;;9.38;3.70;;;12.60;99.90;;;;;;4996525;28;20073;-79
2022/10/29 04:24:15;;;;;;;8.45;3.83;;;12.50;99.90;;;;;;4979117;28;20034;-79
2022/10/29 04:26:44;;;;;;;6.07;4.03;;;12.50;99.90;;;;;;4979001;28;20022;-79
2022/10/29 04:29:09;;;;;;;6.68;3.58;;;12.50;99.90;;;;;;4979082;28;20454;-80
2022/10/29 04:31:36;;;;;;;9.50;4.15;;;12.50;99.90;;;;;;4979006;28;20074;-78
2022/10/29 04:34:02;;;;;;;6.40;3.58;;;12.50;99.90;;;;;;4979320;28;20041;-79
2022/10/29 04:36:29;;;;;;;7.70;4.15;;;12.50;99.90;;;;;;4980144;28;20069;-79
2022/10/29 04:38:55;;;;;;;7.80;3.90;;;12.50;99.90;;;;;;4996152;28;20026;-79
2022/10/29 04:41:22;;;;;;;5.72;3.90;;;12.50;99.90;;;;;;4995821;28;20030;-79
2022/10/29 04:43:48;;;;;;;8.23;4.35;;;12.50;99.90;;;;;;4996097;28;20033;-80
2022/10/29 04:46:14;;;;;;;8.15;4.45;;;12.40;99.90;;;;;;4978929;28;20030;-79
2022/10/29 04:48:41;;;;;;;7.32;4.35;;;12.40;99.90;;;;;;4979570;28;20462;-80
2022/10/29 04:51:16;;;;;;;6.80;4.60;;;12.40;99.90;;;;;;4985895;28;20038;-80
2022/10/29 04:53:42;;;;;;;7.95;4.07;;;12.40;99.90;;;;;;4991913;28;20042;-80
2022/10/29 04:56:08;;;;;;;7.63;4.07;;;12.50;99.90;;;;;;4982423;28;20035;-79
2022/10/29 04:58:34;;;;;;;8.75;5.13;;;12.50;99.90;;;;;;4995147;28;20058;-80
2022/10/29 05:01:01;;;;;;;8.13;4.28;;;12.50;99.90;;;;;;4978620;28;20023;-79
2022/10/29 05:03:27;;;;;;;9.10;5.00;;;12.50;99.90;;;;;;4976605;28;20034;-79
2022/10/29 05:05:54;;;;;;;7.53;4.60;;;12.60;99.90;;;;;;4985368;28;20053;-79
2022/10/29 05:08:20;;;;;;;6.88;4.63;;;12.60;99.90;;;;;;4978769;28;20027;-79
2022/10/29 05:10:46;;;;;;;8.73;4.53;;;12.60;99.90;;;;;;4979291;28;20026;-79
2022/10/29 05:13:12;;;;;;;7.05;4.10;;;12.60;99.90;;;;;;4979917;28;20056;-79
2022/10/29 05:15:39;;;;;;;6.82;4.53;;;12.60;99.90;;;;;;4984533;28;20037;-79
2022/10/29 05:18:06;;;;;;;7.20;5.10;;;12.60;99.90;;;;;;4994647;28;20026;-79
2022/10/29 05:20:35;;;;;;;9.35;5.40;;;12.60;99.90;;;;;;4981493;28;20031;-78
2022/10/29 05:23:09;;;;;;;8.55;4.70;;;12.60;99.90;;;;;;4976991;28;20034;-80
2022/10/29 05:25:37;;;;;;;7.38;4.88;;;12.60;99.90;;;;;;4979350;28;20033;-80
2022/10/29 05:28:17;;;;;;;9.27;5.57;;;12.60;99.90;;;;;;4979431;28;20489;-80
2022/10/29 05:30:44;;;;;;;8.73;5.10;;;12.60;99.90;;;;;;4963621;28;20027;-79
2022/10/29 05:33:14;;;;;;;8.85;5.40;;;12.70;99.90;;;;;;4978712;28;20026;-80
2022/10/29 05:35:40;;;;;;;7.43;4.72;;;12.70;99.90;;;;;;4996065;28;20030;-80
2022/10/29 05:38:09;;;;;;;10.00;5.43;;;12.80;99.90;;;;;;4978997;28;20033;-80
2022/10/29 05:40:35;;;;;;;9.15;5.15;;;12.80;99.90;;;;;;4977583;28;20026;-80
2022/10/29 05:43:01;;;;;;;9.57;5.60;;;12.80;99.90;;;;;;4991388;28;20541;-80
2022/10/29 05:45:28;;;;;;;9.00;5.47;;;12.80;99.90;;;;;;4978019;28;20124;-79
2022/10/29 05:47:58;;;;;;;8.85;5.25;;;12.80;99.90;;;;;;4978317;28;20025;-79
2022/10/29 05:50:25;;;;;;;8.52;5.18;;;12.80;99.90;;;;;;4994918;28;20027;-80
2022/10/29 05:52:59;;;;;;;8.60;5.43;;;12.80;99.90;;;;;;4978053;28;20045;-79
2022/10/29 05:55:26;;;;;;;11.45;5.70;;;12.90;99.90;;;;;;4973034;28;20058;-79
2022/10/29 05:57:56;;;;;;;11.13;6.32;;;12.90;99.90;;;;;;4958580;28;20109;-79
2022/10/29 06:00:27;;;;;;;8.75;5.38;;;12.90;99.90;;;;;;4975090;28;20549;-79
2022/10/29 06:02:53;;;;;;;8.90;5.38;;;12.80;99.90;;;;;;4958363;28;20132;-80
2022/10/29 06:05:20;;;;;;;8.10;5.47;;;12.80;99.90;;;;;;4975201;28;20027;-79
2022/10/29 06:07:51;;;;;;;10.15;5.55;;;12.80;99.90;;;;;;4958555;28;20031;-79
2022/10/29 06:10:17;;;;;;;10.45;5.18;;;12.90;99.90;;;;;;4957709;28;20022;-79
2022/10/29 06:12:45;;;;;;;8.25;5.50;;;12.80;99.90;;;;;;4975748;28;20462;-79
2022/10/29 06:15:11;;;;;;;7.80;5.63;;;12.80;99.90;;;;;;4938329;29;20040;-79
2022/10/29 06:17:41;;;;;;;8.15;4.88;;;12.80;99.90;;;;;;4950641;28;20039;-79
2022/10/29 06:20:09;;;;;;;10.95;6.18;;;12.90;99.90;;;;;;4957804;28;20459;-79
2022/10/29 06:22:35;;;;;;;9.40;5.32;;;13.00;99.90;;;;;;4957606;28;20086;-79
2022/10/29 06:25:02;;;;;;;10.65;6.75;;;13.00;99.90;;;;;;4958131;28;20026;-79
2022/10/29 06:27:28;;;;;;;10.77;6.10;;;13.10;99.90;;;;;;4957445;28;20066;-79
2022/10/29 06:29:54;;;;;;;8.65;5.90;;;13.10;99.90;;;;;;4957483;28;20030;-79
2022/10/29 06:32:20;;;;;;;8.50;5.15;;;13.20;99.90;;;;;;4957669;28;20023;-79
2022/10/29 06:34:46;;;;;;;8.60;5.65;;;13.20;99.90;;;;;;4957926;28;20031;-79
2022/10/29 06:37:12;;;;;;;9.00;5.72;;;13.30;99.90;;;;;;4975193;28;20356;-80
2022/10/29 06:39:38;;;;;;;8.93;5.55;;;13.30;99.90;;;;;;4956287;28;20455;-79
2022/10/29 06:42:05;;;;;;;10.02;6.07;;;13.30;99.90;;;;;;4957503;28;20022;-79
2022/10/29 06:44:31;;;;;;;9.95;6.32;;;13.40;99.90;;;;;;4956790;28;20030;-79
2022/10/29 06:46:58;;;;;;;10.35;6.00;;;13.40;99.90;;;;;;4957579;28;20023;-79
2022/10/29 06:49:25;;;;;;;7.65;5.47;;;13.40;99.90;;;;;;4941067;28;20049;-80
2022/10/29 06:51:51;;;;;;;9.55;5.88;;;13.40;99.90;;;;;;4945923;29;20031;-80
2022/10/29 06:54:20;;;;;;;11.63;6.00;;;13.40;99.90;;;;;;4956572;28;20034;-79
2022/10/29 06:56:46;;;;;;;9.23;5.72;;;13.40;99.90;;;;;;4971792;28;20054;-79
2022/10/29 06:59:12;;;;;;;8.88;6.20;;;13.50;99.90;;;;;;4976431;28;20030;-79
2022/10/29 07:01:38;;;;;;;9.73;6.15;;;13.50;99.90;;;;;;4994058;28;20433;-79
2022/10/29 07:04:04;;;;;;;9.40;6.38;;;13.60;99.90;;;;;;4979939;28;20026;-79
2022/10/29 07:06:32;;;;;;;12.90;6.75;;;13.60;99.90;;;;;;5006642;28;20034;-79
2022/10/29 07:08:59;;;;;;;10.25;7.18;;;13.70;99.90;;;;;;5008451;28;20039;-80
2022/10/29 07:11:25;;;;;;;11.38;6.72;;;13.70;99.90;;;;;;4982828;28;20560;-79
2022/10/29 07:13:55;;;;;;;11.18;6.75;;;13.80;99.90;;;;;;4991140;28;20026;-78
2022/10/29 07:16:21;;;;;;;11.93;6.63;;;13.80;99.90;;;;;;5016808;28;20049;-80
2022/10/29 07:18:47;;;;;;;8.40;6.05;;;13.90;99.90;;;;;;5000261;28;20022;-80
2022/10/29 07:21:13;;;;;;;13.07;6.78;;;13.90;99.90;;;;;;4997458;28;20030;-79
2022/10/29 07:23:42;;;;;;;11.43;7.15;;;14.00;99.90;;;;;;4981678;28;20454;-80
2022/10/29 07:26:08;;;;;;;12.50;7.47;;;14.00;99.90;;;;;;4981123;28;20378;-79
2022/10/29 07:28:35;;;;;;;12.02;7.13;;;14.10;99.90;;;;;;4981015;28;20030;-79
2022/10/29 07:31:02;;;;;;;9.63;6.85;;;14.20;99.90;;;;;;4980142;28;20114;-80
2022/10/29 07:33:29;;;;;;;9.85;7.00;;;14.30;99.90;;;;;;4980984;28;20030;-79
2022/10/29 07:35:59;;;;;;;11.95;7.47;;;14.30;99.90;;;;;;4998770;28;20478;-80
2022/10/29 07:38:26;;;;;;;9.60;6.20;;;14.40;99.90;;;;;;4998509;28;20077;-79
2022/10/29 07:40:53;;;;;;;10.75;6.55;;;14.50;99.90;;;;;;4980413;28;20037;-79
2022/10/29 07:43:21;;;;;;;11.85;7.60;;;14.50;99.90;;;;;;4998016;28;20484;-80
2022/10/29 07:45:49;;;;;;;8.80;6.57;;;14.60;99.90;;;;;;4997312;28;20038;-80
2022/10/29 07:48:15;;;;;;;10.98;7.32;;;14.70;99.90;;;;;;4980098;28;20540;-79
2022/10/29 07:50:42;;;;;;;12.60;7.60;;;14.70;99.90;;;;;;4996990;28;20026;-79
2022/10/29 07:53:08;;;;;;;10.90;7.28;;;14.70;99.90;;;;;;4980435;28;20050;-78
2022/10/29 07:55:34;;;;;;;13.55;7.30;;;14.70;99.90;;;;;;4979288;28;20054;-78
2022/10/29 07:58:03;;;;;;;13.52;7.72;;;14.80;99.90;;;;;;4979538;28;20362;-79
2022/10/29 08:00:35;;;;;;;11.20;7.80;;;14.90;99.90;;;;;;4982168;28;20364;-79
2022/10/29 08:03:03;;;;;;;12.10;6.85;;;15.00;99.90;;;;;;4996865;28;20033;-79
2022/10/29 08:05:30;;;;;;;12.35;7.43;;;15.10;99.90;;;;;;4996870;28;20029;-79
2022/10/29 08:07:56;;;;;;;11.60;7.80;;;15.20;99.90;;;;;;4979535;28;20534;-79
2022/10/29 08:10:24;;;;;;;14.02;8.05;;;15.30;99.90;;;;;;4979619;28;20085;-78
2022/10/29 08:12:58;;;;;;;13.93;8.15;;;15.40;99.90;;;;;;4978890;28;20023;-79
2022/10/29 08:15:26;;;;;;;13.63;7.78;;;15.50;99.90;;;;;;4977544;28;20034;-78
2022/10/29 08:17:52;;;;;;;12.10;7.93;;;15.50;99.90;;;;;;4995947;28;20114;-78
2022/10/29 08:20:21;;;;;;;11.35;8.25;;;15.60;99.90;;;;;;4995494;28;20032;-79
2022/10/29 08:22:48;;;;;;;10.75;7.40;;;15.60;99.90;;;;;;4983353;28;20033;-79
2022/10/29 08:25:14;;;;;;;12.02;7.35;;;15.70;99.90;;;;;;4974866;28;20145;-81
2022/10/29 08:27:40;;;;;;;14.40;8.02;;;15.80;99.90;;;;;;4997856;28;20022;-79
2022/10/29 08:30:09;;;;;;;12.63;7.60;;;15.80;99.90;;;;;;4977320;28;20041;-79
2022/10/29 08:32:35;;;;;;;14.43;7.80;;;15.90;99.90;;;;;;4976154;28;20018;-79
2022/10/29 08:35:01;;;;;;;10.57;7.30;;;16.00;99.90;;;;;;4980323;28;20026;-79
2022/10/29 08:37:27;;;;;;;12.35;8.35;;;16.10;99.90;;;;;;4994601;28;20062;-79
2022/10/29 08:39:55;;;;;;;11.02;7.47;;;16.20;99.90;;;;;;4995549;28;20026;-80
2022/10/29 08:42:52;;;;;;;10.05;7.07;;;16.40;99.90;;;;;;4978536;28;20027;-79
2022/10/29 08:45:28;;;;;;;12.13;7.25;;;16.50;99.90;;;;;;4996267;28;20029;-79
2022/10/29 08:48:18;;;;;;;11.68;7.93;;;16.70;99.90;;;;;;4995942;28;20046;-79
2022/10/29 08:51:12;;;;;;;10.60;7.53;;;16.90;99.90;;;;;;4997087;28;20145;-79
2022/10/29 08:53:42;;;;;;;10.48;6.93;;;17.10;99.90;;;;;;4965552;28;20039;-79
2022/10/29 08:56:27;;;;;;;10.13;7.18;;;17.30;99.90;;;;;;4977536;28;20054;-79
2022/10/29 08:58:58;;;;;;;15.60;7.20;;;17.40;99.90;;;;;;4964724;28;20030;-79
2022/10/29 09:01:24;;;;;;;12.73;7.40;;;17.60;99.90;;;;;;4976331;28;20030;-80
2022/10/29 09:03:51;;;;;;;12.70;8.00;;;18.30;99.90;;;;;;4983422;28;20065;-79
2022/10/29 09:06:43;;;;;;;12.18;7.40;;;18.60;99.90;;;;;;4977788;28;20040;-79
2022/10/29 09:09:09;;;;;;;10.05;6.75;;;18.60;99.90;;;;;;4970549;28;20137;-79
2022/10/29 09:11:56;;;;;;;10.10;6.85;;;18.70;99.90;;;;;;5002397;28;20006;-79
2022/10/29 09:14:41;;;;;;;13.32;7.80;;;19.50;99.90;;;;;;5006458;28;20053;-79
2022/10/29 09:17:19;;;;;;;10.98;6.82;;;20.30;99.90;;;;;;4988338;28;20069;-78
2022/10/29 09:20:22;;;;;;;11.50;6.60;;;20.70;99.90;;;;;;5007099;28;20065;-79
2022/10/29 09:23:09;;;;;;;9.55;6.07;;;20.50;99.90;;;;;;4987113;28;20022;-79
2022/10/29 09:25:44;;;;;;;11.77;6.15;;;20.00;99.90;;;;;;4985160;28;20030;-78
2022/10/29 09:28:40;;;;;;;8.85;5.90;;;19.60;99.90;;;;;;4977539;28;20022;-78
2022/10/29 09:31:36;;;;;;;10.38;6.40;;;19.30;99.90;;;;;;4977708;28;20461;-78
2022/10/29 09:34:20;;;;;;;8.43;5.72;;;19.00;99.90;;;;;;4989913;28;20041;-78
2022/10/29 09:36:49;;;;;;;10.07;6.18;;;18.70;99.90;;;;;;4991778;28;20023;-79
2022/10/29 09:39:27;;;;;;;9.55;6.28;;;18.60;99.90;;;;;;4993114;28;20132;-79
2022/10/29 09:41:53;;;;;;;9.10;6.32;;;18.40;99.90;;;;;;4976443;28;20199;-79
2022/10/29 09:44:29;;;;;;;10.18;6.43;;;18.40;99.90;;;;;;4972728;28;20449;-79
2022/10/29 09:46:58;;;;;;;10.00;6.68;;;18.40;99.90;;;;;;4968982;28;20065;-79
2022/10/29 09:49:45;;;;;;;10.23;6.43;;;18.30;99.90;;;;;;4989621;28;20378;-79
2022/10/29 09:52:18;;;;;;;11.25;6.63;;;18.30;99.90;;;;;;4979284;28;20737;-80
2022/10/29 09:54:45;;;;;;;10.40;6.88;;;18.30;99.90;;;;;;4978144;28;20125;-79
2022/10/29 09:57:33;;;;;;;12.13;6.95;;;18.20;99.90;;;;;;4989704;28;20061;-79
2022/10/29 10:00:18;;;;;;;9.63;6.75;;;18.20;99.90;;;;;;4980377;28;20030;-79
2022/10/29 10:03:03;;;;;;;10.75;6.35;;;18.20;99.90;;;;;;4970437;28;20037;-79
2022/10/29 10:05:53;;;;;;;9.85;6.72;;;18.10;99.90;;;;;;4990842;28;20475;-79
2022/10/29 10:08:20;;;;;;;10.15;6.30;;;18.10;99.90;;;;;;4989408;28;20031;-79
2022/10/29 10:11:05;;;;;;;10.02;6.97;;;18.10;99.90;;;;;;4978992;28;20547;-80
2022/10/29 10:13:49;;;;;;;13.57;7.30;;;18.00;99.90;;;;;;4964650;28;20037;-80
2022/10/29 10:16:34;;;;;;;9.55;6.47;;;18.00;99.90;;;;;;4991237;28;20727;-79
2022/10/29 10:19:00;;;;;;;11.05;7.32;;;18.00;99.90;;;;;;4973824;28;20030;-79
2022/10/29 10:21:32;;;;;;;11.20;7.07;;;18.10;99.90;;;;;;4986057;28;20411;-79
2022/10/29 10:24:35;;;;;;;12.23;6.57;;;18.10;99.90;;;;;;4989767;28;20034;-79
2022/10/29 10:27:33;;;;;;;10.68;6.88;;;18.10;99.90;;;;;;4970960;28;20033;-79
2022/10/29 10:30:14;;;;;;;9.75;6.65;;;18.20;99.90;;;;;;4987171;28;20364;-80
2022/10/29 10:32:44;;;;;;;10.95;7.13;;;18.20;99.90;;;;;;4971089;28;20030;-79
2022/10/29 10:35:29;;;;;;;12.38;7.75;;;18.30;99.90;;;;;;4989238;28;20049;-80
2022/10/29 10:37:59;;;;;;;10.73;6.78;;;19.70;99.90;;;;;;4966225;28;20034;-80
2022/10/29 10:40:25;;;;;;;15.57;8.30;;;21.00;99.90;;;;;;4972679;28;20081;-80
2022/10/29 10:42:57;;;;;;;10.90;7.70;;;21.60;99.90;;;;;;4993835;28;20027;-79
2022/10/29 10:45:33;;;;;;;11.68;7.70;;;22.20;99.90;;;;;;4987547;28;20052;-81
2022/10/29 10:48:00;;;;;;;10.75;7.65;;;23.20;99.90;;;;;;4988292;28;20029;-80
2022/10/29 10:50:31;;;;;;;10.43;6.25;;;24.10;99.90;;;;;;4987852;28;20030;-80
2022/10/29 10:53:21;;;;;;;8.00;5.57;;;25.00;99.90;;;;;;4971120;28;20033;-80
2022/10/29 10:55:53;;;;;;;8.80;5.50;;;25.90;99.90;;;;;;4989693;28;20066;-80
2022/10/29 10:58:29;;;;;;;8.30;4.78;;;26.70;99.90;;;;;;4989600;28;20065;-80
2022/10/29 11:01:12;;;;;;;7.07;4.75;;;27.50;99.90;;;;;;4969862;28;20538;-81
2022/10/29 11:03:49;;;;;;;6.68;4.30;;;27.70;99.90;;;;;;4977524;28;20031;-78
2022/10/29 11:06:52;;;;;;;9.73;5.45;;;28.40;99.90;;;;;;4992467;28;20090;-79
2022/10/29 11:09:29;;;;;;;9.45;4.90;;;28.10;99.90;;;;;;4954329;28;20029;-80
2022/10/29 11:12:07;;;;;;;12.63;5.18;;;27.20;99.90;;;;;;5007910;28;20033;-79
2022/10/29 11:14:41;;;;;;;9.73;5.60;;;26.10;99.90;;;;;;4974817;28;20125;-81
2022/10/29 11:17:22;;;;;;;9.02;5.78;;;25.40;99.90;;;;;;4991285;28;20030;-79
2022/10/29 11:19:51;;;;;;;11.20;4.93;;;25.50;99.90;;;;;;4974908;28;20038;-79
2022/10/29 11:22:57;;;;;;;7.45;5.10;;;26.50;99.90;;;;;;4990958;28;20097;-80
2022/10/29 11:25:30;;;;;;;10.43;5.20;;;26.50;99.90;;;;;;4965872;28;20593;-80
2022/10/29 11:28:38;;;;;;;8.65;5.43;;;25.60;99.90;;;;;;4973771;28;20542;-79
2022/10/29 11:31:34;;;;;;;7.68;5.43;;;25.00;99.90;;;;;;4897922;29;20120;-79
2022/10/29 11:34:14;;;;;;;7.57;4.68;;;24.90;99.90;;;;;;4979920;28;20073;-79
2022/10/29 11:36:50;;;;;;;9.82;5.57;;;25.10;99.90;;;;;;4973535;28;20054;-80
2022/10/29 11:39:30;;;;;;;10.43;5.25;;;25.80;99.90;;;;;;4985578;28;20066;-80
2022/10/29 11:42:00;;;;;;;8.13;5.20;;;26.80;99.90;;;;;;4972978;28;20023;-81
2022/10/29 11:44:28;;;;;;;9.15;5.13;;;26.80;99.90;;;;;;4988489;28;20027;-79
2022/10/29 11:47:11;;;;;;;9.77;4.97;;;26.80;99.90;;;;;;4970669;28;20045;-80
2022/10/29 11:49:55;;;;;;;10.73;4.50;;;27.10;99.90;;;;;;4971843;28;20101;-81
2022/10/29 11:52:32;;;;;;;6.95;3.88;;;27.60;99.90;;;;;;4988880;28;20034;-79
2022/10/29 11:55:18;;;;;;;8.95;4.10;;;28.10;99.90;;;;;;4970370;28;20434;-80
2022/10/29 11:58:00;;;;;;;12.10;5.07;;;28.50;99.90;;;;;;4967713;28;20042;-80
2022/10/29 12:00:31;;;;;;;8.65;4.20;;;28.20;99.90;;;;;;4968770;28;20438;-80
2022/10/29 12:03:27;;;;;;;8.02;4.65;;;27.30;99.90;;;;;;4967864;28;20082;-80
2022/10/29 12:06:14;;;;;;;7.57;4.50;;;26.50;99.90;;;;;;4967323;28;20026;-80
2022/10/29 12:09:05;;;;;;;9.65;4.13;;;26.00;99.90;;;;;;4976579;28;20026;-81
2022/10/29 12:12:13;;;;;;;8.18;4.15;;;25.50;99.90;;;;;;4959092;28;20042;-80
2022/10/29 12:15:01;;;;;;;8.80;3.83;;;25.10;99.90;;;;;;4884786;29;20146;-80
2022/10/29 12:18:05;;;;;;;8.48;4.35;;;24.80;99.90;;;;;;4903430;29;20528;-82
2022/10/29 12:20:47;;;;;;;8.75;4.35;;;24.50;99.90;;;;;;4900427;28;20035;-82
2022/10/29 12:23:29;;;;;;;8.02;4.10;;;24.30;99.90;;;;;;4957831;28;20797;-81
2022/10/29 12:26:06;;;;;;;10.27;4.13;;;24.00;99.90;;;;;;4953368;28;20094;-81
2022/10/29 12:28:44;;;;;;;9.40;3.78;;;23.90;99.90;;;;;;4951351;28;20041;-81
2022/10/29 12:31:12;;;;;;;7.65;3.88;;;23.90;99.90;;;;;;4972917;28;20023;-80
2022/10/29 12:34:02;;;;;;;9.35;3.60;;;24.00;99.90;;;;;;4956662;28;20639;-82
2022/10/29 12:36:43;;;;;;;6.68;2.80;;;24.60;99.90;;;;;;4952617;28;20027;-82
2022/10/29 12:39:32;;;;;;;8.35;2.95;;;25.50;99.90;;;;;;4955713;28;20045;-80
2022/10/29 12:42:12;;;;;;;6.55;3.15;;;26.90;99.90;;;;;;4979776;28;20034;-81
2022/10/29 12:44:56;;;;;;;5.28;2.50;;;28.20;99.90;;;;;;4970095;28;20023;-80
2022/10/29 12:47:49;;;;;;;4.95;2.70;;;29.20;99.90;;;;;;4946138;28;20049;-80
2022/10/29 12:50:47;;;;;;;6.45;2.58;;;30.00;99.90;;;;;;4944088;28;20336;-80
2022/10/29 12:53:40;;;;;;;6.80;2.70;;;30.40;99.90;;;;;;4948514;28;20122;-82
2022/10/29 12:56:07;;;;;;;6.65;2.58;;;30.40;99.90;;;;;;4960243;28;20050;-81
2022/10/29 12:58:43;;;;;;;6.65;3.20;;;29.80;99.90;;;;;;4974154;28;20517;-82
2022/10/29 13:01:27;;;;;;;5.88;3.03;;;29.10;99.90;;;;;;4992133;28;20037;-81
2022/10/29 13:03:53;;;;;;;5.60;3.08;;;28.60;99.90;;;;;;4999986;28;20025;-83
2022/10/29 13:06:38;;;;;;;8.15;3.10;;;28.70;99.90;;;;;;4994479;28;20018;-82
2022/10/29 13:09:16;;;;;;;7.40;3.30;;;29.00;99.90;;;;;;4982633;28;20030;-82
2022/10/29 13:11:47;;;;;;;7.20;2.80;;;29.50;99.90;;;;;;4976689;28;20386;-81